Nearby METAR Reports

 

ENCN - Kristiansand/Kje, Norway
Distance from station: Pn 17km
Aktualizacja: 05/07/2022 19:50
Częściowe zachmurzenie
Częściowe zachmurzenie
 Wiatr z ZdPnZd
Wiatr: ZdPnZd 19 km/h
Temperatura: 18°C
Punkt Rosy: 7°C
Wilgotność: 49%
Ciśnienie: 1014 hPa
Clouds: Częściowe zachmurzenie
Visibility: 10 km
Cloud details: Częściowe zachmurzenie 1372 m
2022/07/05 17:50 ENCN 051750Z 29010KT 240V320 9999 SCT045 18/07 Q1014
EKSN - Sindal Airport, Denmark
Distance from station: WsPdWs 145km
Aktualizacja: 30/12/2021 14:50
NOT Current
Mist, Przeważnie pochmurno
Mist, Przeważnie pochmurno
 Wiatr z PdZd
Wiatr: PdZd 26 km/h
Temperatura: 7°C
Wind Chill: 3°C
Punkt Rosy: 7°C
Wilgotność: 100%
Ciśnienie: 999 hPa
Podsumowanie: Mist
Clouds: Przeważnie pochmurno
Visibility: 5 km
Cloud details: Częściowe zachmurzenie 183 m
Przeważnie pochmurno 244 m
2021/12/30 13:50 EKSN 301350Z 23014KT 4500 BR SCT006 BKN008 07/07 Q0999
 
EKYT - Alborg, Denmark
Distance from station: PdWs 153km
Aktualizacja: 05/07/2022 19:50
Częściowe zachmurzenie
Częściowe zachmurzenie
 Wiatr z Zd
Wiatr: Zd 28 km/h
Temperatura: 15°C
Punkt Rosy: 10°C
Wilgotność: 72%
Ciśnienie: 1016 hPa
Clouds: Częściowe zachmurzenie
Visibility: 10 km
Cloud details: Few Clouds 1036 m
Częściowe zachmurzenie 1981 m
2022/07/05 17:50 EKYT 051750Z AUTO 27015KT 9999 FEW034/// SCT065/// 15/10 Q1016
ENSN - Skien/Geiterygge, Norway
Distance from station: PnWs 153km
Aktualizacja: 09/11/2015 09:50
NOT Current
Bezchmurnie
Bezchmurnie
 Wiatr z PdPdZd
Wiatr: PdPdZd 19 km/h, Poryw: 41 km/h
Temperatura: 7°C
Wind Chill: 4°C
Punkt Rosy: 3°C
Wilgotność: 76%
Ciśnienie: 1000 hPa
Podsumowanie: Bezchmurnie
Visibility: greater than 10 km
2015/11/09 08:50 ENSN 090850Z 20010G22KT 150V240 CAVOK 07/03 Q1000
 
ENZV - Stavanger/Sola(A, Norway
Distance from station: PnZd 166km
Aktualizacja: 05/07/2022 19:50
Przeważnie pochmurno
Przeważnie pochmurno
 Wiatr z PnPnZd
Wiatr: PnPnZd 31 km/h
Temperatura: 13°C
Punkt Rosy: 8°C
Wilgotność: 72%
Ciśnienie: 1018 hPa
Clouds: Przeważnie pochmurno
Visibility: 10 km
Cloud details: Częściowe zachmurzenie 792 m
Przeważnie pochmurno 1494 m
2022/07/05 17:50 ENZV 051750Z 33017KT 9999 SCT026 BKN049 13/08 Q1018 NOSIG
ENNO - Notodden, Norway
Distance from station: PnPnZd 182km
Aktualizacja: 05/07/2022 18:50
NOT Current
Bezchmurnie
Bezchmurnie
 Wiatr z ZdPnZd
Wiatr: ZdPnZd 7 km/h
Temperatura: 22°C
Punkt Rosy: 6°C
Wilgotność: 36%
Ciśnienie: 1010 hPa
Podsumowanie: Bezchmurnie
Visibility: greater than 10 km
2022/07/05 16:50 ENNO 051650Z 30004KT 230V020 CAVOK 22/06 Q1010
 
ENTO - Torp (civ/Nor-Af, Norway
Distance from station: PnWs 183km
Aktualizacja: 05/07/2022 19:50
Częściowe zachmurzenie
Częściowe zachmurzenie
 Wiatr z PdPdZd
Wiatr: PdPdZd 17 km/h
Temperatura: 19°C
Punkt Rosy: 8°C
Wilgotność: 49%
Ciśnienie: 1010 hPa
Clouds: Częściowe zachmurzenie
Visibility: 10 km
Cloud details: Częściowe zachmurzenie 914 m
2022/07/05 17:50 ENTO 051750Z 21009KT 180V230 9999 SCT030 19/08 Q1010 NOSIG
EKKA - Karup (dan-Afb), Denmark
Distance from station: PdPdWs 209km
Aktualizacja: 05/07/2022 19:50
Przeważnie pochmurno
Przeważnie pochmurno
 Wiatr z Zd
Wiatr: Zd 22 km/h
Temperatura: 14°C
Punkt Rosy: 10°C
Wilgotność: 77%
Ciśnienie: 1018 hPa
Clouds: Przeważnie pochmurno
Visibility: 10 km
Cloud details: Częściowe zachmurzenie 1737 m
Przeważnie pochmurno 5486 m
2022/07/05 17:50 EKKA 051750Z AUTO 27012KT 9999 SCT057/// BKN180/// 14/10 Q1018
 
ENHD - Haugesund/Karmoy, Norway
Distance from station: PnZd 216km
Aktualizacja: 05/07/2022 19:50
Few Clouds
Few Clouds
 Wiatr z PnZd
Wiatr: PnZd 24 km/h
Temperatura: 14°C
Punkt Rosy: 7°C
Wilgotność: 63%
Ciśnienie: 1018 hPa
Clouds: Few Clouds
Visibility: 10 km
Cloud details: Few Clouds 853 m
2022/07/05 17:50 ENHD 051750Z 32013KT 290V350 9999 FEW028 14/07 Q1018
ENRY - Rygge (nor-Afb), Norway
Distance from station: PnWs 216km
Aktualizacja: 05/07/2022 19:50
Bezchmurnie
Bezchmurnie
 Wiatr z PdZd
Wiatr: PdZd 9 km/h
Temperatura: 18°C
Punkt Rosy: 8°C
Wilgotność: 52%
Ciśnienie: 1010 hPa
Podsumowanie: Bezchmurnie
Visibility: greater than 10 km
2022/07/05 17:50 ENRY 051750Z 23005KT 190V270 CAVOK 18/08 Q1010
 
ESGP - Goteborg/Save (a, Sweden
Distance from station: Ws 230km
Aktualizacja: 05/07/2022 19:50
Częściowe zachmurzenie
Częściowe zachmurzenie
 Wiatr z ZdPdZa
Wiatr: ZdPdZa 19 km/h
Temperatura: 15°C
Punkt Rosy: 9°C
Wilgotność: 68%
Ciśnienie: 1014 hPa
Clouds: Częściowe zachmurzenie
Visibility: 10 km
Cloud details: Częściowe zachmurzenie 884 m
2022/07/05 17:50 ESGP 051750Z 25010KT 220V280 9999 SCT029 15/09 Q1014
EKVJ - Stauning Airport, Denmark
Distance from station: Pd 233km
Aktualizacja: 05/07/2022 15:50
NOT Current
Przeważnie pochmurno
Przeważnie pochmurno
 Wiatr z Zd
Wiatr: Zd 31 km/h
Temperatura: 16°C
Punkt Rosy: 10°C
Wilgotność: 68%
Ciśnienie: 1018 hPa
Clouds: Przeważnie pochmurno
Visibility: 10 km
Cloud details: Częściowe zachmurzenie 914 m
Przeważnie pochmurno 1829 m
2022/07/05 13:50 EKVJ 051350Z 26017KT 9999 SCT030 BKN060 16/10 Q1018
 
ENSO - Stord/Soerstokke, Norway
Distance from station: PnZd 246km
Aktualizacja: 05/07/2022 18:50
NOT Current
Częściowe zachmurzenie
Częściowe zachmurzenie
 Wiatr z PnZd
Wiatr: PnZd 35 km/h
Temperatura: 13°C
Punkt Rosy: 7°C
Wilgotność: 67%
Ciśnienie: 1017 hPa
Clouds: Częściowe zachmurzenie
Visibility: 10 km
Cloud details: Few Clouds 610 m
Częściowe zachmurzenie 1067 m
2022/07/05 16:50 ENSO 051650Z 31019KT 9999 FEW020TCU SCT035 13/07 Q1017
EKAH - Tirstrup (civ/Mi, Denmark
Distance from station: PdWs 252km
Aktualizacja: 05/07/2022 19:50
Częściowe zachmurzenie
Częściowe zachmurzenie
 Wiatr z Zd
Wiatr: Zd 22 km/h
Temperatura: 17°C
Punkt Rosy: 9°C
Wilgotność: 59%
Ciśnienie: 1018 hPa
Clouds: Częściowe zachmurzenie
Visibility: 10 km
Cloud details: Częściowe zachmurzenie 1219 m
2022/07/05 17:50 EKAH 051750Z AUTO 26012KT 220V280 9999 SCT040/// 17/09 Q1018
 
ESGT - Trollhattan (pvt, Sweden
Distance from station: Ws 255km
Aktualizacja: 05/07/2022 19:50
Przeważnie pochmurno
Przeważnie pochmurno
 Wiatr z ZdPdZa
Wiatr: ZdPdZa 24 km/h
Temperatura: 16°C
Punkt Rosy: 10°C
Wilgotność: 68%
Ciśnienie: 1013 hPa
Clouds: Przeważnie pochmurno
Visibility: 10 km
Cloud details: Few Clouds 884 m
Przeważnie pochmurno 6706 m
2022/07/05 17:50 ESGT 051750Z AUTO 24013KT 210V270 9999 FEW029/// BKN220/// 16/10 Q1013
ESGG - Goteborg/Landvet, Sweden
Distance from station: Ws 257km
Aktualizacja: 05/07/2022 19:50
Przeważnie pochmurno
Przeważnie pochmurno
 Wiatr z ZdPdZa
Wiatr: ZdPdZa 20 km/h
Temperatura: 15°C
Punkt Rosy: 10°C
Wilgotność: 72%
Ciśnienie: 1014 hPa
Clouds: Przeważnie pochmurno
Visibility: 10 km
Cloud details: Częściowe zachmurzenie 792 m
Przeważnie pochmurno 1798 m
2022/07/05 17:50 ESGG 051750Z 25011KT 9999 SCT026CB BKN059 15/10 Q1014
 
EKBI - Billund Airport, Denmark
Distance from station: PdPdWs 269km
Aktualizacja: 05/07/2022 19:50
Częściowe zachmurzenie
Częściowe zachmurzenie
 Wiatr z Zd
Wiatr: Zd 22 km/h
Temperatura: 15°C
Punkt Rosy: 9°C
Wilgotność: 68%
Ciśnienie: 1019 hPa
Clouds: Częściowe zachmurzenie
Visibility: 10 km
Cloud details: Few Clouds 884 m
Few Clouds 1067 m
Few Clouds 1524 m
Częściowe zachmurzenie 2621 m
2022/07/05 17:50 EKBI 051750Z AUTO 26012KT 230V290 9999 FEW029/// FEW035/// FEW050/// SCT086/// 15/09 Q1019
EKHN - Horns Rev B Heli, Denmark
Distance from station: Pd 274km
Aktualizacja: 09/08/2016 14:20
NOT Current
Few Clouds
Few Clouds
 Wiatr z ZdPnZd
Wiatr: ZdPnZd 50 km/h, Poryw: 72 km/h
Temperatura: 14°C
Punkt Rosy: 10°C
Wilgotność: 77%
Ciśnienie: 1018 hPa
Clouds: Few Clouds
Visibility: 10 km
Cloud details: Few Clouds 1158 m
Few Clouds 2438 m
2016/08/09 12:20 EKHN 091220Z AUTO 29027G39KT 270V340 9999NDV FEW038/// FEW080/// 14/10 Q1018
 
ESIB - Satenas (swe-Afb, Sweden
Distance from station: Ws 277km
Aktualizacja: 05/07/2022 19:50
Pochmurno
Pochmurno
 Wiatr z PdZd
Wiatr: PdZd 26 km/h
Temperatura: 16°C
Punkt Rosy: 11°C
Wilgotność: 72%
Ciśnienie: 1012 hPa
Clouds: Pochmurno
Visibility: 10 km
Cloud details: Częściowe zachmurzenie 853 m
Przeważnie pochmurno 4267 m
Pochmurno 6096 m
2022/07/05 17:50 ESIB 051750Z AUTO 23014KT 9999 SCT028/// BKN140/// OVC200/// 16/11 Q1012
EKHR - Horns Rev B Heli, Denmark
Distance from station: Pd 282km
Aktualizacja: 04/10/2016 06:20
NOT Current
Bezchmurnie
Bezchmurnie
 Wiatr z Ws
Wiatr: Ws 4 km/h
Temperatura: 11°C
Punkt Rosy: -49°C
Wilgotność: 0%
Ciśnienie: 1038 hPa
Clouds: Bezchmurnie
Visibility: 10 km
2016/10/04 04:20 EKHR 040420Z AUTO 08002KT 9999NDV NCD 11/M49 Q1038